Time;durP1;ratioP1;P1;durP2;ratioP2;P2;SDS_P1;SDS_P2;PMS_P1;PMS_P2;Temp;Humidity;BMP_temperature;BMP_pressure;BME280_temperature;BME280_humidity;BME280_pressure;Samples;Min_cycle;Max_cycle;Signal;HPM_P1;HPM_P2
2022/07/04 00:00:36;;;;;;;1999.90;999.90;;;;;;;23.20;100.00;95431.94;5033102;28;20200;-59
2022/07/04 00:03:02;;;;;;;1999.90;999.90;;;;;;;23.23;100.00;95441.38;5033120;28;20214;-63
2022/07/04 00:05:27;;;;;;;1999.90;999.90;;;;;;;23.26;100.00;95440.41;5032915;28;20229;-62
2022/07/04 00:07:53;;;;;;;1999.90;999.90;;;;;;;23.24;100.00;95445.72;5032942;28;20186;-63
2022/07/04 00:10:20;;;;;;;1999.90;999.90;;;;;;;23.28;100.00;95437.91;5032999;28;20186;-62
2022/07/04 00:12:46;;;;;;;1999.90;999.90;;;;;;;23.32;100.00;95439.25;5033447;28;20302;-62
2022/07/04 00:15:12;;;;;;;1999.90;999.90;;;;;;;23.39;100.00;95432.50;5032835;28;20190;-63
2022/07/04 00:17:38;;;;;;;1999.90;999.90;;;;;;;23.22;100.00;95423.13;5032985;28;20229;-63
2022/07/04 00:20:05;;;;;;;1999.90;999.90;;;;;;;22.88;100.00;95421.03;5032723;28;20187;-61
2022/07/04 00:22:31;;;;;;;1999.90;999.90;;;;;;;22.61;100.00;95413.75;5032516;28;20217;-69
2022/07/04 00:24:57;;;;;;;1999.90;999.90;;;;;;;22.45;100.00;95403.88;5032521;28;20186;-63
2022/07/04 00:27:22;;;;;;;1999.90;999.90;;;;;;;22.37;100.00;95410.28;5032786;28;20293;-62
2022/07/04 00:29:47;;;;;;;1999.90;999.90;;;;;;;22.37;100.00;95405.47;5032487;28;20190;-60
2022/07/04 00:32:13;;;;;;;1999.90;999.90;;;;;;;22.39;100.00;95397.44;5032580;28;20222;-61
2022/07/04 00:34:38;;;;;;;1999.90;999.90;;;;;;;22.52;100.00;95417.41;5032773;28;20186;-61
2022/07/04 00:37:04;;;;;;;1999.90;999.90;;;;;;;22.55;100.00;95410.13;5032657;28;20222;-67
2022/07/04 00:39:29;;;;;;;1999.90;999.90;;;;;;;22.61;100.00;95424.16;5032412;28;20218;-60
2022/07/04 00:41:55;;;;;;;1999.90;999.90;;;;;;;22.72;100.00;95418.75;5032113;28;20305;-60
2022/07/04 00:44:20;;;;;;;1999.90;999.90;;;;;;;22.78;100.00;95423.16;5032467;28;20277;-61
2022/07/04 00:46:46;;;;;;;1999.90;999.90;;;;;;;22.86;100.00;95426.31;5032442;28;20205;-60
2022/07/04 00:49:14;;;;;;;1999.90;999.90;;;;;;;22.90;100.00;95412.97;5032318;28;20277;-60
2022/07/04 00:51:41;;;;;;;1999.90;999.90;;;;;;;22.92;100.00;95410.47;5032465;28;20190;-58
2022/07/04 00:54:09;;;;;;;1999.90;999.90;;;;;;;22.92;100.00;95416.03;5032233;28;20214;-61
2022/07/04 00:56:36;;;;;;;1999.90;999.90;;;;;;;22.84;100.00;95424.03;5032470;28;20195;-63
2022/07/04 00:59:02;;;;;;;1999.90;999.90;;;;;;;22.82;100.00;95434.09;5032033;28;20320;-60
2022/07/04 01:01:27;;;;;;;1999.90;999.90;;;;;;;22.73;100.00;95420.28;5031985;28;20247;-60
2022/07/04 01:03:53;;;;;;;1999.90;999.90;;;;;;;22.74;100.00;95419.03;5031492;28;20189;-61
2022/07/04 01:06:19;;;;;;;1999.90;999.90;;;;;;;22.71;100.00;95429.13;5032266;28;20182;-62
2022/07/04 01:08:46;;;;;;;1999.90;999.90;;;;;;;22.73;100.00;95448.16;5032639;28;20320;-62
2022/07/04 01:11:12;;;;;;;1999.90;999.90;;;;;;;22.74;100.00;95416.25;5031906;28;20183;-60
2022/07/04 01:13:38;;;;;;;1999.90;999.90;;;;;;;22.67;100.00;95441.69;5032815;28;20186;-61
2022/07/04 01:16:04;;;;;;;1999.90;999.90;;;;;;;22.63;100.00;95421.63;5032470;28;20194;-61
2022/07/04 01:18:30;;;;;;;1999.90;999.90;;;;;;;22.60;100.00;95405.88;5032024;28;20210;-60
2022/07/04 01:20:56;;;;;;;1999.90;999.90;;;;;;;22.57;100.00;95409.66;5032214;28;20241;-61
2022/07/04 01:23:22;;;;;;;1999.90;999.90;;;;;;;22.56;100.00;95399.75;5032231;28;20276;-59
2022/07/04 01:25:49;;;;;;;1999.90;999.90;;;;;;;22.54;100.00;95410.59;5031978;28;20191;-59
2022/07/04 01:28:15;;;;;;;1999.90;999.90;;;;;;;22.48;100.00;95411.25;5031807;28;20186;-59
2022/07/04 01:30:40;;;;;;;1999.90;999.90;;;;;;;22.56;100.00;95422.78;5033176;28;20254;-58
2022/07/04 01:33:06;;;;;;;1999.90;999.90;;;;;;;22.62;100.00;95428.47;5032117;28;20222;-60
2022/07/04 01:35:31;;;;;;;1999.90;999.90;;;;;;;22.67;100.00;95434.13;5031751;28;20200;-60
2022/07/04 01:37:57;;;;;;;1999.90;999.90;;;;;;;22.70;100.00;95443.53;5031312;28;20252;-60
2022/07/04 01:40:23;;;;;;;1999.90;999.90;;;;;;;22.77;100.00;95448.72;5032084;28;20175;-60
2022/07/04 01:42:48;;;;;;;1999.90;999.90;;;;;;;22.75;100.00;95442.84;5032123;28;20261;-60
2022/07/04 01:45:14;;;;;;;1999.90;999.90;;;;;;;22.76;100.00;95427.69;5031815;28;20190;-60
2022/07/04 01:47:40;;;;;;;1999.90;999.90;;;;;;;22.84;100.00;95431.63;5032325;28;20214;-60
2022/07/04 01:50:07;;;;;;;1999.90;999.90;;;;;;;22.84;100.00;95420.47;5031489;28;20289;-60
2022/07/04 01:52:33;;;;;;;1999.90;999.90;;;;;;;22.83;100.00;95418.94;5031474;28;20194;-61
2022/07/04 01:54:59;;;;;;;1999.90;999.90;;;;;;;22.78;100.00;95412.03;5031831;28;20187;-62
2022/07/04 01:57:24;;;;;;;1999.90;999.90;;;;;;;22.72;100.00;95404.84;5031535;28;20190;-61
2022/07/04 02:02:33;;;;;;;1999.90;999.90;;;;;;;22.66;100.00;95388.03;5033006;28;20272;-66
2022/07/04 02:04:59;;;;;;;1999.90;999.90;;;;;;;22.56;100.00;95392.16;5031633;28;20191;-65
2022/07/04 02:07:24;;;;;;;1999.90;999.90;;;;;;;22.51;100.00;95380.94;5031473;28;20202;-61
2022/07/04 02:09:50;;;;;;;1999.90;999.90;;;;;;;22.59;100.00;95376.50;5031601;28;20197;-63
2022/07/04 02:14:59;;;;;;;1999.90;999.90;;;;;;;22.48;100.00;95363.19;5032768;28;20197;-59
2022/07/04 02:17:24;;;;;;;1999.90;999.90;;;;;;;22.45;100.00;95367.69;5033913;28;20274;-58
2022/07/04 02:19:50;;;;;;;1999.90;999.90;;;;;;;22.43;100.00;95363.81;5034862;28;20221;-58
2022/07/04 02:22:16;;;;;;;1999.90;999.90;;;;;;;22.41;100.00;95358.72;5034572;28;20210;-58
2022/07/04 02:24:42;;;;;;;1999.90;999.90;;;;;;;22.32;100.00;95364.41;5035686;28;20190;-59
2022/07/04 02:27:08;;;;;;;1999.90;999.90;;;;;;;22.32;100.00;95367.19;5034300;28;20242;-59
2022/07/04 02:29:33;;;;;;;1999.90;999.90;;;;;;;22.31;100.00;95385.13;5034892;28;20198;-61
2022/07/04 02:31:59;;;;;;;1999.90;999.90;;;;;;;22.23;100.00;95378.44;5033966;28;20182;-63
2022/07/04 02:34:24;;;;;;;1999.90;999.90;;;;;;;22.23;100.00;95378.44;5034139;28;20303;-62
2022/07/04 02:36:50;;;;;;;1999.90;999.90;;;;;;;22.18;100.00;95381.09;5034661;28;20193;-62
2022/07/04 02:39:15;;;;;;;1999.90;999.90;;;;;;;22.23;100.00;95381.22;5034780;28;20206;-63
2022/07/04 02:41:41;;;;;;;1999.90;999.90;;;;;;;22.25;100.00;95377.91;5034382;28;20285;-61
2022/07/04 02:44:06;;;;;;;1999.90;999.90;;;;;;;22.17;100.00;95385.91;5034478;28;20186;-62
2022/07/04 02:46:32;;;;;;;1999.90;999.90;;;;;;;22.14;100.00;95386.84;5034106;28;20262;-65
2022/07/04 02:48:59;;;;;;;1999.90;999.90;;;;;;;22.15;100.00;95393.94;5034065;28;20179;-66
2022/07/04 02:51:24;;;;;;;1999.90;999.90;;;;;;;22.09;100.00;95390.31;5034042;28;20182;-64
2022/07/04 02:53:49;;;;;;;1999.90;999.90;;;;;;;22.07;100.00;95387.22;5033965;28;20187;-66
2022/07/04 02:56:15;;;;;;;1999.90;999.90;;;;;;;22.04;100.00;95402.09;5033897;28;20217;-67
2022/07/04 02:58:40;;;;;;;1999.90;999.90;;;;;;;22.03;100.00;95392.22;5034194;28;20266;-63
2022/07/04 03:01:06;;;;;;;1999.90;999.90;;;;;;;22.00;100.00;95382.03;5033983;28;20179;-63
2022/07/04 03:03:31;;;;;;;1999.90;999.90;;;;;;;21.93;100.00;95387.97;5033473;28;20209;-65
2022/07/04 03:05:57;;;;;;;1999.90;999.90;;;;;;;21.91;100.00;95384.13;5033855;28;20186;-60
2022/07/04 03:08:22;;;;;;;1999.90;999.90;;;;;;;21.87;100.00;95387.09;5034227;28;20186;-66
2022/07/04 03:10:51;;;;;;;1999.90;999.90;;;;;;;21.86;100.00;95384.81;5033688;28;20191;-65
2022/07/04 03:13:17;;;;;;;1999.90;999.90;;;;;;;21.81;100.00;95377.88;5033520;28;20193;-65
2022/07/04 03:15:42;;;;;;;1999.90;999.90;;;;;;;21.77;100.00;95380.06;5033964;28;20194;-65
2022/07/04 03:18:08;;;;;;;1999.90;999.90;;;;;;;21.64;100.00;95371.19;5033515;28;20285;-65
2022/07/04 03:20:33;;;;;;;1999.90;999.90;;;;;;;21.63;100.00;95358.53;5033444;28;20193;-65
2022/07/04 03:22:58;;;;;;;1999.90;999.90;;;;;;;21.64;100.00;95370.44;5033199;28;20234;-60
2022/07/04 03:25:24;;;;;;;1999.90;999.90;;;;;;;21.49;100.00;95353.69;5033685;28;20193;-60
2022/07/04 03:27:50;;;;;;;1999.90;999.90;;;;;;;21.27;100.00;95331.00;5033869;28;20187;-61
2022/07/04 03:30:15;;;;;;;1999.90;999.90;;;;;;;21.20;100.00;95331.38;5033576;28;20277;-60
2022/07/04 03:32:40;;;;;;;1999.90;999.90;;;;;;;21.15;100.00;95334.81;5033538;28;20358;-60
2022/07/04 03:35:06;;;;;;;1999.90;999.90;;;;;;;21.10;100.00;95335.47;5033605;28;20178;-61
2022/07/04 03:37:31;;;;;;;1999.90;999.90;;;;;;;21.13;100.00;95342.84;5033850;28;20191;-60
2022/07/04 03:39:57;;;;;;;1999.90;999.90;;;;;;;21.11;100.00;95334.22;5033750;28;20257;-61
2022/07/04 03:42:22;;;;;;;1999.90;999.90;;;;;;;21.21;100.00;95344.03;5033307;28;20288;-60
2022/07/04 03:44:48;;;;;;;1999.90;999.90;;;;;;;21.25;100.00;95344.63;5033317;28;20186;-64
2022/07/04 03:47:14;;;;;;;1999.90;999.90;;;;;;;21.31;100.00;95353.06;5033226;28;20195;-64
2022/07/04 03:49:39;;;;;;;1999.90;999.90;;;;;;;21.35;100.00;95353.66;5033577;28;20193;-64
2022/07/04 03:52:05;;;;;;;1999.90;999.90;;;;;;;21.40;100.00;95361.34;5033199;28;20195;-64
2022/07/04 03:54:30;;;;;;;1999.90;999.90;;;;;;;21.41;100.00;95352.53;5033232;28;20190;-64
2022/07/04 03:56:55;;;;;;;1999.90;999.90;;;;;;;21.44;100.00;95351.59;5033482;28;20186;-65
2022/07/04 03:59:21;;;;;;;1999.90;999.90;;;;;;;21.36;100.00;95336.53;5033453;28;20191;-57
2022/07/04 04:01:46;;;;;;;1999.90;999.90;;;;;;;21.33;100.00;95340.25;5032916;28;20222;-64
2022/07/04 04:06:55;;;;;;;1999.90;999.90;;;;;;;21.45;100.00;95364.22;5034453;28;20352;-64
2022/07/04 04:09:22;;;;;;;1999.90;999.90;;;;;;;21.42;100.00;95387.41;5032781;28;20296;-64
2022/07/04 04:11:47;;;;;;;1999.90;999.90;;;;;;;21.46;100.00;95388.00;5033370;28;20206;-64
2022/07/04 04:14:13;;;;;;;1999.90;999.90;;;;;;;21.49;100.00;95409.28;5033031;28;20210;-64
2022/07/04 04:16:39;;;;;;;1999.90;999.90;;;;;;;21.54;100.00;95417.00;5032920;28;20206;-57
2022/07/04 04:19:04;;;;;;;1999.90;999.90;;;;;;;21.61;100.00;95415.84;5032759;28;20231;-64
2022/07/04 04:21:29;;;;;;;1999.90;999.90;;;;;;;21.63;100.00;95403.00;5049390;28;20212;-62
2022/07/04 04:23:55;;;;;;;1999.90;999.90;;;;;;;21.65;100.00;95411.66;5032866;28;20222;-62
2022/07/04 04:26:21;;;;;;;1999.90;999.90;;;;;;;21.65;100.00;95419.22;5032936;28;20196;-63
2022/07/04 04:28:47;;;;;;;1999.90;999.90;;;;;;;21.65;100.00;95422.78;5032520;28;20190;-65
2022/07/04 04:31:14;;;;;;;1999.90;999.90;;;;;;;21.68;100.00;95432.94;5032833;28;20208;-66
2022/07/04 04:33:40;;;;;;;1999.90;999.90;;;;;;;21.73;100.00;95435.09;5032404;28;20170;-67
2022/07/04 04:36:06;;;;;;;1999.90;999.90;;;;;;;21.77;100.00;95430.13;5033909;28;20183;-59
2022/07/04 04:38:31;;;;;;;1999.90;999.90;;;;;;;21.84;100.00;95429.78;5032377;28;20293;-65
2022/07/04 04:40:56;;;;;;;1999.90;999.90;;;;;;;21.91;100.00;95436.97;5032708;28;20286;-67
2022/07/04 04:43:22;;;;;;;1999.90;999.90;;;;;;;21.97;100.00;95438.63;5032673;28;20249;-68
2022/07/04 04:45:47;;;;;;;1999.90;999.90;;;;;;;21.99;100.00;95430.56;5032686;28;20189;-68
2022/07/04 04:48:12;;;;;;;1999.90;999.90;;;;;;;22.07;100.00;95436.56;5032462;28;20190;-68
2022/07/04 04:50:38;;;;;;;1999.90;999.90;;;;;;;22.20;100.00;95435.03;5032501;28;20189;-64
2022/07/04 04:53:03;;;;;;;1999.90;999.90;;;;;;;22.38;100.00;95434.88;5032394;28;20198;-64
2022/07/04 04:55:28;;;;;;;1999.90;999.90;;;;;;;22.56;100.00;95433.94;5048992;28;20197;-71
2022/07/04 04:57:54;;;;;;;1999.90;999.90;;;;;;;22.68;100.00;95446.03;5032368;28;20265;-58
2022/07/04 05:00:19;;;;;;;1999.90;999.90;;;;;;;22.82;100.00;95459.19;5031850;28;20186;-58
2022/07/04 05:02:44;;;;;;;1999.90;999.90;;;;;;;22.89;100.00;95473.50;5031734;28;20217;-58
2022/07/04 05:05:10;;;;;;;1999.90;999.90;;;;;;;22.90;100.00;95480.59;5032461;28;20185;-58
2022/07/04 05:07:35;;;;;;;1999.90;999.90;;;;;;;22.92;100.00;95478.13;5031916;28;20265;-59
2022/07/04 05:10:02;;;;;;;1999.90;999.90;;;;;;;22.97;100.00;95493.38;5031912;28;20424;-59
2022/07/04 05:12:28;;;;;;;1999.90;999.90;;;;;;;23.03;100.00;95499.81;5031876;28;20190;-67
2022/07/04 05:14:53;;;;;;;1999.90;999.90;;;;;;;23.14;100.00;95523.06;5033270;28;20193;-67
2022/07/04 05:17:19;;;;;;;1999.90;999.90;;;;;;;23.11;100.00;95534.38;5032044;28;20197;-63
2022/07/04 05:19:44;;;;;;;1999.90;999.90;;;;;;;23.00;100.00;95539.78;5032100;28;20244;-67
2022/07/04 05:22:13;;;;;;;1999.90;999.90;;;;;;;22.98;100.00;95531.13;5031991;28;20238;-67
2022/07/04 05:24:39;;;;;;;1999.90;999.90;;;;;;;22.96;100.00;95530.84;5032532;28;20278;-67
2022/07/04 05:27:05;;;;;;;1999.90;999.90;;;;;;;22.83;100.00;95508.09;5031795;28;20249;-67
2022/07/04 05:29:31;;;;;;;1999.90;999.90;;;;;;;22.61;100.00;95485.41;5031905;28;20199;-76
2022/07/04 05:31:56;;;;;;;1999.90;999.90;;;;;;;22.50;100.00;95474.06;5031859;28;20194;-68
2022/07/04 05:34:22;;;;;;;1999.90;999.90;;;;;;;22.39;100.00;95427.25;5032239;28;20174;-63
2022/07/04 05:36:47;;;;;;;1999.90;999.90;;;;;;;22.14;100.00;95431.38;5031700;28;20210;-62
2022/07/04 05:39:12;;;;;;;1999.90;999.90;;;;;;;22.10;100.00;95418.88;5031472;28;20267;-59
2022/07/04 05:41:38;;;;;;;1999.90;999.90;;;;;;;22.12;100.00;95392.13;5031817;28;20197;-58
2022/07/04 05:44:04;;;;;;;1999.90;999.90;;;;;;;22.14;100.00;95386.06;5031543;28;20186;-59
2022/07/04 05:46:29;;;;;;;1999.90;999.90;;;;;;;22.16;100.00;95378.81;5031339;28;20195;-61
2022/07/04 05:48:55;;;;;;;1999.90;999.90;;;;;;;22.20;100.00;95384.94;5031434;28;20183;-70
2022/07/04 05:51:20;;;;;;;1999.90;999.90;;;;;;;22.21;100.00;95394.81;5033633;28;20183;-67
2022/07/04 05:53:45;;;;;;;1999.90;999.90;;;;;;;22.18;100.00;95420.06;5034860;28;20187;-67
2022/07/04 05:56:11;;;;;;;1999.90;999.90;;;;;;;22.14;100.00;95419.47;5034707;28;20191;-64
2022/07/04 05:58:36;;;;;;;1999.90;999.90;;;;;;;22.10;100.00;95436.34;5034881;28;20272;-68
2022/07/04 06:01:01;;;;;;;1999.90;999.90;;;;;;;22.21;100.00;95436.56;5035824;28;20261;-68
2022/07/04 06:03:27;;;;;;;1999.90;999.90;;;;;;;22.29;100.00;95423.06;5034819;28;20234;-66
2022/07/04 06:05:53;;;;;;;1999.90;999.90;;;;;;;22.35;100.00;95413.56;5034476;28;20179;-65
2022/07/04 06:08:18;;;;;;;1999.90;999.90;;;;;;;22.46;100.00;95436.00;5034657;28;20191;-61
2022/07/04 06:10:44;;;;;;;1999.90;999.90;;;;;;;22.63;100.00;95430.00;5035195;28;20182;-59
2022/07/04 06:13:09;;;;;;;1999.90;999.90;;;;;;;22.71;100.00;95456.97;5035602;28;20190;-59
2022/07/04 06:15:35;;;;;;;1999.90;999.90;;;;;;;22.73;100.00;95459.28;5034492;28;20182;-59
2022/07/04 06:18:02;;;;;;;1999.90;999.90;;;;;;;22.82;100.00;95464.75;5034778;28;20213;-59
2022/07/04 06:20:27;;;;;;;1999.90;999.90;;;;;;;22.81;100.00;95461.22;5034694;28;20182;-58
2022/07/04 06:22:53;;;;;;;1999.90;999.90;;;;;;;22.90;100.00;95468.69;5034150;28;20228;-59
2022/07/04 06:25:19;;;;;;;1999.90;999.90;;;;;;;22.99;100.00;95493.66;5034606;28;20287;-67
2022/07/04 06:27:47;;;;;;;1999.90;999.90;;;;;;;23.00;100.00;95495.19;5034898;28;20194;-60
2022/07/04 06:30:13;;;;;;;1999.90;999.90;;;;;;;23.15;100.00;95502.28;5034701;28;20198;-67
2022/07/04 06:32:43;;;;;;;1999.90;999.90;;;;;;;23.21;100.00;95510.75;5034449;28;20252;-65
2022/07/04 06:37:52;;;;;;;1999.90;999.90;;;;;;;23.15;100.00;95516.22;5035628;28;20244;-67
2022/07/04 06:40:18;;;;;;;1999.90;999.90;;;;;;;23.21;100.00;95505.16;5034649;28;20194;-66
2022/07/04 06:42:43;;;;;;;1999.90;999.90;;;;;;;23.12;100.00;95496.94;5033884;28;20199;-66
2022/07/04 06:45:09;;;;;;;1999.90;999.90;;;;;;;23.20;100.00;95498.06;5034304;28;20214;-67
2022/07/04 06:47:35;;;;;;;1999.90;999.90;;;;;;;23.22;100.00;95478.84;5034282;28;20183;-68
2022/07/04 06:50:01;;;;;;;1999.90;999.90;;;;;;;23.28;100.00;95488.09;5033876;28;20178;-68
2022/07/04 06:52:26;;;;;;;1999.90;999.90;;;;;;;22.93;100.00;95492.78;5033920;28;20186;-71
2022/07/04 06:54:51;;;;;;;1999.90;999.90;;;;;;;23.01;100.00;95482.81;5034047;28;20190;-70
2022/07/04 06:57:17;;;;;;;1999.90;999.90;;;;;;;23.15;100.00;95485.56;5033840;28;20194;-69
2022/07/04 06:59:42;;;;;;;1999.90;999.90;;;;;;;23.20;100.00;95478.56;5034408;28;20229;-70
2022/07/04 07:02:07;;;;;;;1999.90;999.90;;;;;;;23.31;100.00;95495.50;5032463;28;20267;-62
2022/07/04 07:04:33;;;;;;;1999.90;999.90;;;;;;;23.27;100.00;95497.72;5034215;28;20294;-61
2022/07/04 07:06:58;;;;;;;1999.90;999.90;;;;;;;23.12;100.00;95485.78;5033855;28;20246;-57
2022/07/04 07:09:24;;;;;;;1999.90;999.90;;;;;;;23.06;100.00;95496.06;5033602;28;20194;-57
2022/07/04 07:11:49;;;;;;;1999.90;999.90;;;;;;;23.11;100.00;95489.81;5033604;28;20273;-57
2022/07/04 07:14:14;;;;;;;1999.90;999.90;;;;;;;23.02;100.00;95501.06;5033381;28;20190;-58
2022/07/04 07:16:40;;;;;;;1999.90;999.90;;;;;;;22.97;100.00;95507.28;5034047;28;20183;-57
2022/07/04 07:19:05;;;;;;;1999.90;999.90;;;;;;;22.88;100.00;95501.84;5035048;28;20182;-58
2022/07/04 07:21:31;;;;;;;1999.90;999.90;;;;;;;22.82;100.00;95487.03;5033665;28;20189;-58
2022/07/04 07:23:56;;;;;;;1999.90;999.90;;;;;;;22.88;100.00;95496.25;5033693;28;20211;-68
2022/07/04 07:26:22;;;;;;;1999.90;999.90;;;;;;;22.82;100.00;95487.81;5033300;28;20194;-70
2022/07/04 07:28:47;;;;;;;1999.90;999.90;;;;;;;22.82;100.00;95478.66;5033425;28;20195;-75
2022/07/04 07:31:12;;;;;;;1999.90;999.90;;;;;;;22.72;100.00;95469.66;5033367;28;20225;-78
2022/07/04 07:33:38;;;;;;;1999.90;999.90;;;;;;;22.67;100.00;95461.19;5033204;28;20186;-71
2022/07/04 07:36:04;;;;;;;1999.90;999.90;;;;;;;22.65;100.00;95458.88;5033250;28;20194;-71
2022/07/04 07:38:29;;;;;;;1999.90;999.90;;;;;;;22.29;100.00;95459.97;5033440;28;20210;-63
2022/07/04 07:40:55;;;;;;;1999.90;999.90;;;;;;;22.09;100.00;95445.16;5050501;28;20201;-63
2022/07/04 07:43:20;;;;;;;1999.90;999.90;;;;;;;22.16;100.00;95434.47;5033328;28;20221;-68
2022/07/04 07:45:46;;;;;;;1999.90;999.90;;;;;;;22.12;100.00;95394.16;5032895;28;20194;-75
2022/07/04 07:48:11;;;;;;;1999.90;999.90;;;;;;;22.16;100.00;95356.53;5049881;28;20182;-67
2022/07/04 07:50:36;;;;;;;1999.90;999.90;;;;;;;22.09;100.00;95345.00;5033642;28;20191;-65
2022/07/04 07:53:02;;;;;;;1999.90;999.90;;;;;;;22.21;100.00;95336.38;5033077;28;20191;-68
2022/07/04 07:55:28;;;;;;;1999.90;999.90;;;;;;;22.39;100.00;95352.09;5033397;28;20186;-68
2022/07/04 07:57:53;;;;;;;1999.90;999.90;;;;;;;22.70;100.00;95359.97;5032962;28;20180;-59
2022/07/04 08:00:19;;;;;;;1999.90;999.90;;;;;;;22.91;100.00;95383.88;5032874;28;20269;-66
2022/07/04 08:05:28;;;;;;;1999.90;999.90;;;;;;;23.29;100.00;95397.63;5034148;28;20217;-64
2022/07/04 08:07:54;;;;;;;1999.90;999.90;;;;;;;23.45;100.00;95419.41;5032750;28;20194;-67
2022/07/04 08:10:20;;;;;;;1999.90;999.90;;;;;;;23.59;100.00;95429.72;5032998;28;20186;-66
2022/07/04 08:12:45;;;;;;;1999.90;999.90;;;;;;;23.75;100.00;95443.13;5032859;28;20190;-64
2022/07/04 08:15:10;;;;;;;1999.90;999.90;;;;;;;23.91;100.00;95434.19;5032603;28;20248;-57
2022/07/04 08:17:36;;;;;;;1999.90;999.90;;;;;;;24.05;100.00;95458.50;5032634;28;20241;-64
2022/07/04 08:20:03;;;;;;;1999.90;999.90;;;;;;;24.36;100.00;95481.72;5033048;28;20194;-65
2022/07/04 08:22:29;;;;;;;1999.90;999.90;;;;;;;24.64;100.00;95490.41;5032362;28;20206;-62
2022/07/04 08:24:54;;;;;;;1999.90;999.90;;;;;;;24.98;100.00;95504.22;5032448;28;20198;-62
2022/07/04 08:27:22;;;;;;;1999.90;999.90;;;;;;;25.02;100.00;95515.19;5032618;28;20251;-61
2022/07/04 08:29:47;;;;;;;1999.90;999.90;;;;;;;25.59;100.00;95513.13;5032412;28;20194;-62
2022/07/04 08:32:13;;;;;;;1999.90;999.90;;;;;;;25.96;100.00;95527.91;5032556;28;20236;-62
2022/07/04 08:34:38;;;;;;;1999.90;999.90;;;;;;;26.07;100.00;95525.16;5032493;28;20256;-59
2022/07/04 08:37:03;;;;;;;1999.90;999.90;;;;;;;26.59;100.00;95537.63;5032688;28;20273;-51
2022/07/04 08:39:30;;;;;;;1999.90;999.90;;;;;;;27.36;100.00;95565.91;5032485;28;20233;-56
2022/07/04 08:42:01;;;;;;;1999.90;999.90;;;;;;;28.00;100.00;95576.09;5032814;28;20198;-56
2022/07/04 08:44:42;;;;;;;1999.90;999.90;;;;;;;28.11;100.00;95584.50;5032467;28;20198;-57
2022/07/04 08:47:09;;;;;;;1999.90;999.90;;;;;;;28.31;100.00;95587.03;5032560;28;20186;-56
2022/07/04 08:49:38;;;;;;;1999.90;999.90;;;;;;;28.49;100.00;95594.16;5032482;28;20192;-57
2022/07/04 08:52:05;;;;;;;1999.90;999.90;;;;;;;28.74;100.00;95596.66;5032611;28;20183;-62
2022/07/04 09:00:04;;;;;;;1999.90;999.90;;;;;;;31.40;83.33;95602.25;5033926;28;20236;-65
2022/07/04 09:02:29;;;;;;;1999.90;999.90;;;;;;;32.37;77.80;95599.69;5032181;28;20233;-67
2022/07/04 09:04:55;;;;;;;1999.90;999.90;;;;;;;33.50;71.50;95594.28;5032471;28;20186;-56
2022/07/04 09:07:22;;;;;;;1999.90;999.90;;;;;;;33.56;68.74;95586.44;5032454;28;20217;-57
2022/07/04 09:09:48;;;;;;;1999.90;999.90;;;;;;;33.99;65.18;95588.78;5031901;28;20182;-58
2022/07/04 09:12:13;;;;;;;1999.90;999.90;;;;;;;35.03;59.66;95599.41;5032184;28;20285;-56
2022/07/04 09:14:39;;;;;;;1999.90;999.90;;;;;;;34.89;58.08;95600.09;5032560;28;20182;-61
2022/07/04 09:17:05;;;;;;;1999.90;999.90;;;;;;;35.39;55.69;95602.28;5032289;28;20194;-62
2022/07/04 09:19:31;;;;;;;1999.90;999.90;;;;;;;35.77;52.24;95608.84;5031903;28;20232;-60
2022/07/04 09:22:02;;;;;;;1999.90;999.90;;;;;;;35.64;51.85;95606.13;5032414;28;20186;-62
2022/07/04 09:24:46;;;;;;;1999.90;999.90;;;;;;;35.89;49.19;95605.09;5032476;28;20269;-61
2022/07/04 09:27:11;;;;;;;1999.90;999.90;;;;;;;35.41;51.06;95605.28;5035222;28;20214;-61
2022/07/04 09:29:52;;;;;;;1999.90;999.90;;;;;;;35.08;53.13;95600.56;5035698;28;20178;-58
2022/07/04 09:32:32;;;;;;;1999.90;999.90;;;;;;;34.99;53.90;95595.44;5035671;28;20178;-64
2022/07/04 09:34:58;;;;;;;1999.90;999.90;;;;;;;35.10;53.35;95603.63;5035739;28;20209;-64
2022/07/04 09:37:33;;;;;;;1999.90;999.90;;;;;;;35.82;51.33;95613.59;5035280;28;20186;-63
2022/07/04 09:39:58;;;;;;;1999.90;999.90;;;;;;;36.10;49.59;95599.25;5035470;28;20210;-63
2022/07/04 09:42:24;;;;;;;1999.90;999.90;;;;;;;35.19;50.39;95611.63;5035619;28;20316;-64
2022/07/04 09:44:49;;;;;;;1999.90;999.90;;;;;;;34.89;50.65;95600.09;5035868;28;20222;-63
2022/07/04 09:47:23;;;;;;;1999.90;999.90;;;;;;;34.27;52.67;95605.84;5035070;28;20249;-61
2022/07/04 09:50:05;;;;;;;1999.90;999.90;;;;;;;34.48;53.91;95605.84;5035342;28;20187;-55
2022/07/04 09:52:31;;;;;;;1999.90;999.90;;;;;;;35.09;51.58;95602.84;5035369;28;20182;-59
2022/07/04 09:55:05;;;;;;;1999.90;999.90;;;;;;;35.49;51.31;95600.41;5036143;28;20190;-59
2022/07/04 09:57:32;;;;;;;1999.90;999.90;;;;;;;35.50;49.71;95596.25;5034850;28;20219;-60
2022/07/04 10:00:16;;;;;;;1999.90;999.90;;;;;;;34.91;48.07;95591.75;5035153;28;20193;-60
2022/07/04 10:02:41;;;;;;;1999.90;999.90;;;;;;;33.71;53.12;95597.94;5035114;28;20298;-60
2022/07/04 10:05:08;;;;;;;1999.90;999.90;;;;;;;33.86;53.47;95597.34;5034922;28;20289;-61
2022/07/04 10:07:35;;;;;;;1999.90;999.90;;;;;;;33.32;55.63;95588.78;5034651;28;20191;-61
2022/07/04 10:10:24;;;;;;;1999.90;999.90;;;;;;;33.88;53.71;95591.13;5034883;28;20199;-54
2022/07/04 10:12:54;;;;;;;1999.90;999.90;;;;;;;33.95;53.15;95593.25;5035228;28;20193;-56
2022/07/04 10:15:20;;;;;;;1999.90;999.90;;;;;;;33.17;55.27;95592.16;5035220;28;20201;-56
2022/07/04 10:17:45;;;;;;;1999.90;999.90;;;;;;;32.95;56.17;95595.47;5034664;28;20187;-56
2022/07/04 10:20:11;;;;;;;1999.90;999.90;;;;;;;32.26;57.59;95603.44;5034601;28;20186;-56
2022/07/04 10:22:38;;;;;;;1999.90;999.90;;;;;;;31.88;61.06;95599.22;5034913;28;20272;-52
2022/07/04 10:25:04;;;;;;;1999.90;999.90;;;;;;;31.64;61.38;95587.28;5034848;28;20194;-61
2022/07/04 10:27:30;;;;;;;1999.90;999.90;;;;;;;31.36;64.42;95590.50;5034335;28;20328;-60
2022/07/04 10:29:57;;;;;;;1999.90;999.90;;;;;;;31.33;65.63;95596.44;5034486;28;20187;-60
2022/07/04 10:32:23;;;;;;;1999.90;999.90;;;;;;;31.37;65.42;95597.69;5035163;28;20194;-60
2022/07/04 10:34:49;;;;;;;1999.90;999.90;;;;;;;31.14;66.99;95608.47;5034715;28;20179;-60
2022/07/04 10:37:14;;;;;;;1999.90;999.90;;;;;;;30.79;67.73;95597.41;5033501;28;20186;-60
2022/07/04 10:39:40;;;;;;;1999.90;999.90;;;;;;;30.47;71.55;95590.03;5034403;28;20210;-60
2022/07/04 10:42:06;;;;;;;1999.90;999.90;;;;;;;30.51;72.12;95596.13;5034348;28;20182;-60
2022/07/04 10:44:37;;;;;;;1999.90;999.90;;;;;;;30.48;73.15;95591.59;5034907;28;20240;-60
2022/07/04 10:47:06;;;;;;;1999.90;999.90;;;;;;;30.51;74.41;95590.50;5034999;28;20277;-60
2022/07/04 10:49:34;;;;;;;1999.90;999.90;;;;;;;30.73;72.76;95593.09;5034337;28;20185;-62
2022/07/04 10:52:10;;;;;;;1999.90;999.90;;;;;;;30.76;71.40;95594.84;5034181;28;20211;-62
2022/07/04 10:54:38;;;;;;;1999.90;999.90;;;;;;;30.70;73.51;95592.09;5034969;28;20182;-61
2022/07/04 10:57:23;;;;;;;1999.90;999.90;;;;;;;30.65;72.65;95583.69;5034199;28;20221;-61
2022/07/04 10:59:55;;;;;;;1999.90;999.90;;;;;;;30.61;74.08;95575.53;5034055;28;20246;-61
2022/07/04 11:02:22;;;;;;;1999.90;999.90;;;;;;;30.29;77.02;95579.47;5034088;28;20260;-61